Time,TemperatureF,DewpointF,PressureIn,WindDirection,WindDirectionDegrees,WindSpeedMPH,WindSpeedGustMPH,Humidity,HourlyPrecipIn,Conditions,Clouds,dailyrainin,SoftwareType,DateUTC
2013-07-12 00:00:00,60.5,58.2,29.98,N/A,-737280,0.0,0.0,92,0.00,,,0.00,Wunderground v.1.13,2013-07-12 04:00:00,
2013-07-12 00:05:00,60.5,58.2,29.98,N/A,-737280,0.0,0.0,92,0.00,,,0.00,Wunderground v.1.13,2013-07-12 04:05:00,
2013-07-12 00:10:00,60.5,58.2,29.97,N/A,-737280,0.0,0.0,92,0.00,,,0.00,Wunderground v.1.13,2013-07-12 04:10:00,
2013-07-12 00:15:00,60.4,58.1,29.98,N/A,-737280,0.0,0.0,92,0.00,,,0.00,Wunderground v.1.13,2013-07-12 04:15:00,
2013-07-12 00:20:00,60.3,58.0,29.98,N/A,-737280,0.0,0.0,92,0.00,,,0.00,Wunderground v.1.13,2013-07-12 04:20:00,
2013-07-12 00:25:00,60.2,57.9,29.98,N/A,-737280,0.0,0.0,92,0.00,,,0.00,Wunderground v.1.13,2013-07-12 04:25:00,
2013-07-12 00:30:00,60.2,57.9,29.98,N/A,-737280,0.0,0.0,92,0.00,,,0.00,Wunderground v.1.13,2013-07-12 04:30:00,
2013-07-12 00:35:00,60.1,57.8,29.98,N/A,-737280,0.0,0.0,92,0.00,,,0.00,Wunderground v.1.13,2013-07-12 04:35:00,
2013-07-12 00:40:00,60.1,57.8,29.97,N/A,-737280,0.0,0.0,92,0.00,,,0.00,Wunderground v.1.13,2013-07-12 04:40:00,
2013-07-12 00:45:00,60.1,57.8,29.97,N/A,-737280,0.0,0.0,92,0.00,,,0.00,Wunderground v.1.13,2013-07-12 04:45:00,
2013-07-12 00:50:00,60.0,57.7,29.97,N/A,-737280,0.0,0.0,92,0.00,,,0.00,Wunderground v.1.13,2013-07-12 04:50:00,
2013-07-12 00:55:00,59.9,57.6,29.97,South,180,0.0,1.0,92,0.00,,,0.00,Wunderground v.1.13,2013-07-12 04:55:00,
2013-07-12 01:00:00,59.8,57.8,29.97,South,180,0.0,1.0,93,0.00,,,0.00,Wunderground v.1.13,2013-07-12 05:00:00,
2013-07-12 01:05:00,59.6,57.6,29.97,South,180,0.0,1.0,93,0.00,,,0.00,Wunderground v.1.13,2013-07-12 05:05:00,
2013-07-12 01:10:00,59.5,57.2,29.97,N/A,-737280,0.0,0.0,92,0.00,,,0.00,Wunderground v.1.13,2013-07-12 05:10:00,
2013-07-12 01:15:00,59.4,57.1,29.97,N/A,-737280,0.0,0.0,92,0.00,,,0.00,Wunderground v.1.13,2013-07-12 05:15:00,
2013-07-12 01:20:00,59.2,56.9,29.97,N/A,-737280,0.0,0.0,92,0.00,,,0.00,Wunderground v.1.13,2013-07-12 05:20:00,
2013-07-12 01:25:00,59.1,57.1,29.97,South,180,0.0,1.0,93,0.00,,,0.00,Wunderground v.1.13,2013-07-12 05:25:00,
2013-07-12 01:30:00,59.0,57.0,29.97,South,180,0.0,2.0,93,0.00,,,0.00,Wunderground v.1.13,2013-07-12 05:30:00,
2013-07-12 01:35:00,59.0,57.0,29.97,N/A,-737280,0.0,2.0,93,0.00,,,0.00,Wunderground v.1.13,2013-07-12 05:35:00,
2013-07-12 01:40:00,59.0,57.0,29.97,N/A,-737280,0.0,0.0,93,0.00,,,0.00,Wunderground v.1.13,2013-07-12 05:40:00,
2013-07-12 01:45:00,59.0,57.0,29.97,N/A,-737280,0.0,0.0,93,0.00,,,0.00,Wunderground v.1.13,2013-07-12 05:45:00,
2013-07-12 01:50:00,59.0,57.0,29.97,N/A,-737280,0.0,0.0,93,0.00,,,0.00,Wunderground v.1.13,2013-07-12 05:50:00,
2013-07-12 01:55:00,59.0,57.0,29.97,South,180,0.0,1.0,93,0.00,,,0.00,Wunderground v.1.13,2013-07-12 05:55:00,
2013-07-12 02:00:00,59.0,57.0,29.97,N/A,-737280,0.0,0.0,93,0.00,,,0.00,Wunderground v.1.13,2013-07-12 06:00:00,
2013-07-12 02:05:00,59.0,57.0,29.98,N/A,-737280,0.0,0.0,93,0.00,,,0.00,Wunderground v.1.13,2013-07-12 06:05:00,
2013-07-12 02:10:00,59.0,57.0,29.98,N/A,-737280,0.0,0.0,93,0.00,,,0.00,Wunderground v.1.13,2013-07-12 06:10:00,
2013-07-12 02:15:00,58.8,56.8,29.98,N/A,-737280,0.0,0.0,93,0.00,,,0.00,Wunderground v.1.13,2013-07-12 06:15:00,
2013-07-12 02:20:00,58.7,56.7,29.98,N/A,-737280,0.0,0.0,93,0.00,,,0.00,Wunderground v.1.13,2013-07-12 06:20:00,
2013-07-12 02:25:00,58.6,56.6,29.98,N/A,-737280,0.0,0.0,93,0.00,,,0.00,Wunderground v.1.13,2013-07-12 06:25:00,
2013-07-12 02:30:00,58.6,56.6,29.99,N/A,-737280,0.0,0.0,93,0.00,,,0.00,Wunderground v.1.13,2013-07-12 06:30:00,
2013-07-12 02:35:00,58.6,56.6,29.98,N/A,-737280,0.0,0.0,93,0.00,,,0.00,Wunderground v.1.13,2013-07-12 06:35:00,
2013-07-12 02:40:00,58.4,56.4,29.99,N/A,-737280,0.0,0.0,93,0.00,,,0.00,Wunderground v.1.13,2013-07-12 06:40:00,
2013-07-12 02:45:00,58.4,56.4,29.98,N/A,-737280,0.0,0.0,93,0.00,,,0.00,Wunderground v.1.13,2013-07-12 06:45:00,
2013-07-12 02:50:00,58.3,56.3,29.98,N/A,-737280,0.0,0.0,93,0.00,,,0.00,Wunderground v.1.13,2013-07-12 06:50:00,
2013-07-12 02:55:00,58.2,56.2,29.98,N/A,-737280,0.0,0.0,93,0.00,,,0.00,Wunderground v.1.13,2013-07-12 06:55:00,
2013-07-12 03:00:00,58.3,56.3,29.98,N/A,-737280,0.0,0.0,93,0.00,,,0.00,Wunderground v.1.13,2013-07-12 07:00:00,
2013-07-12 03:05:00,58.3,56.3,29.98,N/A,-737280,0.0,0.0,93,0.00,,,0.00,Wunderground v.1.13,2013-07-12 07:05:00,
2013-07-12 03:10:00,58.2,56.2,29.98,N/A,-737280,0.0,0.0,93,0.00,,,0.00,Wunderground v.1.13,2013-07-12 07:10:00,
2013-07-12 03:15:00,58.2,56.2,29.98,N/A,-737280,0.0,0.0,93,0.00,,,0.00,Wunderground v.1.13,2013-07-12 07:15:00,
2013-07-12 03:20:00,58.1,56.1,29.99,N/A,-737280,0.0,0.0,93,0.00,,,0.00,Wunderground v.1.13,2013-07-12 07:20:00,
2013-07-12 03:25:00,58.1,56.1,29.99,N/A,-737280,0.0,0.0,93,0.00,,,0.00,Wunderground v.1.13,2013-07-12 07:25:00,
2013-07-12 03:30:00,58.1,56.1,29.99,N/A,-737280,0.0,0.0,93,0.00,,,0.00,Wunderground v.1.13,2013-07-12 07:30:00,
2013-07-12 03:45:00,58.0,56.0,29.99,N/A,-737280,0.0,0.0,93,0.00,,,0.00,Wunderground v.1.13,2013-07-12 07:45:00,
2013-07-12 03:50:00,58.0,56.0,30.00,N/A,-737280,0.0,0.0,93,0.00,,,0.00,Wunderground v.1.13,2013-07-12 07:50:00,
2013-07-12 03:55:00,58.0,56.0,30.00,N/A,-737280,0.0,0.0,93,0.00,,,0.00,Wunderground v.1.13,2013-07-12 07:55:00,
2013-07-12 04:00:00,57.9,55.9,30.00,N/A,-737280,0.0,0.0,93,0.00,,,0.00,Wunderground v.1.13,2013-07-12 08:00:00,
2013-07-12 04:05:00,57.9,56.2,30.00,N/A,-737280,0.0,0.0,94,0.00,,,0.00,Wunderground v.1.13,2013-07-12 08:05:00,
2013-07-12 04:10:00,57.9,55.9,30.00,N/A,-737280,0.0,0.0,93,0.00,,,0.00,Wunderground v.1.13,2013-07-12 08:10:00,
2013-07-12 04:15:00,57.9,55.9,30.00,N/A,-737280,0.0,0.0,93,0.00,,,0.00,Wunderground v.1.13,2013-07-12 08:15:00,
2013-07-12 04:20:00,57.9,55.9,30.00,N/A,-737280,0.0,0.0,93,0.00,,,0.00,Wunderground v.1.13,2013-07-12 08:20:00,
2013-07-12 04:25:00,57.9,56.2,30.00,N/A,-737280,0.0,0.0,94,0.00,,,0.00,Wunderground v.1.13,2013-07-12 08:25:00,
2013-07-12 04:30:00,58.0,56.3,30.01,N/A,-737280,0.0,0.0,94,0.00,,,0.00,Wunderground v.1.13,2013-07-12 08:30:00,
2013-07-12 04:35:00,58.0,56.3,30.00,N/A,-737280,0.0,0.0,94,0.00,,,0.00,Wunderground v.1.13,2013-07-12 08:35:00,
2013-07-12 04:40:00,58.0,56.3,30.00,SE,135,0.0,1.0,94,0.00,,,0.00,Wunderground v.1.13,2013-07-12 08:40:00,
2013-07-12 04:45:00,58.0,56.3,30.01,N/A,-737280,0.0,0.0,94,0.00,,,0.00,Wunderground v.1.13,2013-07-12 08:45:00,
2013-07-12 04:50:00,58.1,56.4,30.01,N/A,-737280,0.0,0.0,94,0.00,,,0.00,Wunderground v.1.13,2013-07-12 08:50:00,
2013-07-12 04:55:00,58.1,56.4,30.01,N/A,-737280,0.0,0.0,94,0.00,,,0.00,Wunderground v.1.13,2013-07-12 08:55:00,
2013-07-12 05:00:00,58.2,56.5,30.01,N/A,-737280,0.0,0.0,94,0.00,,,0.00,Wunderground v.1.13,2013-07-12 09:00:00,
2013-07-12 05:05:00,58.2,56.5,30.01,N/A,-737280,0.0,0.0,94,0.00,,,0.00,Wunderground v.1.13,2013-07-12 09:05:00,
2013-07-12 05:10:00,58.3,56.6,30.01,N/A,-737280,0.0,0.0,94,0.00,,,0.00,Wunderground v.1.13,2013-07-12 09:10:00,
2013-07-12 05:15:00,58.4,56.7,30.01,N/A,-737280,0.0,0.0,94,0.00,,,0.00,Wunderground v.1.13,2013-07-12 09:15:00,
2013-07-12 05:20:00,58.5,56.8,30.01,N/A,-737280,0.0,0.0,94,0.00,,,0.00,Wunderground v.1.13,2013-07-12 09:20:00,
2013-07-12 05:25:00,58.6,56.9,30.02,N/A,-737280,0.0,0.0,94,0.00,,,0.00,Wunderground v.1.13,2013-07-12 09:25:00,
2013-07-12 05:30:00,58.7,57.0,30.02,N/A,-737280,0.0,0.0,94,0.00,,,0.00,Wunderground v.1.13,2013-07-12 09:30:00,
2013-07-12 05:35:00,58.9,57.2,30.02,N/A,-737280,0.0,0.0,94,0.00,,,0.00,Wunderground v.1.13,2013-07-12 09:35:00,
2013-07-12 05:40:00,59.0,57.3,30.02,SE,135,0.0,1.0,94,0.00,,,0.00,Wunderground v.1.13,2013-07-12 09:40:00,
2013-07-12 05:45:00,59.0,57.3,30.03,N/A,-737280,0.0,0.0,94,0.00,,,0.00,Wunderground v.1.13,2013-07-12 09:45:00,
2013-07-12 05:50:00,59.0,57.3,30.03,SE,135,0.0,1.0,94,0.00,,,0.00,Wunderground v.1.13,2013-07-12 09:50:00,
2013-07-12 05:55:00,59.4,57.7,30.03,SE,135,0.0,1.0,94,0.00,,,0.00,Wunderground v.1.13,2013-07-12 09:55:00,
2013-07-12 06:00:00,59.6,58.2,30.03,N/A,-737280,0.0,0.0,95,0.00,,,0.00,Wunderground v.1.13,2013-07-12 10:00:00,
2013-07-12 06:05:00,60.0,58.3,30.03,SE,135,0.0,1.0,94,0.00,,,0.00,Wunderground v.1.13,2013-07-12 10:05:00,
2013-07-12 06:10:00,60.2,58.8,30.03,SE,135,0.0,2.0,95,0.00,,,0.00,Wunderground v.1.13,2013-07-12 10:10:00,
2013-07-12 06:15:00,60.4,59.0,30.04,SE,135,0.0,1.0,95,0.00,,,0.00,Wunderground v.1.13,2013-07-12 10:15:00,
2013-07-12 06:20:00,60.7,59.3,30.04,N/A,-737280,0.0,0.0,95,0.00,,,0.00,Wunderground v.1.13,2013-07-12 10:20:00,
2013-07-12 06:25:00,61.2,59.8,30.03,SE,135,0.0,1.0,95,0.00,,,0.00,Wunderground v.1.13,2013-07-12 10:25:00,
2013-07-12 06:30:00,61.6,60.2,30.04,SE,135,0.0,1.0,95,0.00,,,0.00,Wunderground v.1.13,2013-07-12 10:30:00,
2013-07-12 06:35:00,62.0,60.6,30.04,SE,135,0.0,1.0,95,0.00,,,0.00,Wunderground v.1.13,2013-07-12 10:35:00,
2013-07-12 06:40:00,62.3,60.8,30.04,South,180,1.0,3.0,95,0.00,,,0.00,Wunderground v.1.13,2013-07-12 10:40:00,
2013-07-12 06:45:00,62.7,61.2,30.04,South,180,1.0,2.0,95,0.00,,,0.00,Wunderground v.1.13,2013-07-12 10:45:00,
2013-07-12 06:50:00,62.9,61.1,30.03,South,180,1.0,3.0,94,0.00,,,0.00,Wunderground v.1.13,2013-07-12 10:50:00,
2013-07-12 06:55:00,63.3,61.5,30.03,South,180,1.0,3.0,94,0.00,,,0.00,Wunderground v.1.13,2013-07-12 10:55:00,
2013-07-12 07:00:00,64.0,61.9,30.03,SSW,203,1.0,4.0,93,0.00,,,0.00,Wunderground v.1.13,2013-07-12 11:00:00,
2013-07-12 07:05:00,64.6,62.2,30.03,WNW,293,1.0,3.0,92,0.00,,,0.00,Wunderground v.1.13,2013-07-12 11:05:00,
2013-07-12 07:10:00,65.1,62.4,30.03,WNW,293,1.0,3.0,91,0.00,,,0.00,Wunderground v.1.13,2013-07-12 11:10:00,
2013-07-12 07:15:00,65.7,62.7,30.03,SW,225,0.0,3.0,90,0.00,,,0.00,Wunderground v.1.13,2013-07-12 11:15:00,
2013-07-12 07:20:00,66.0,62.0,30.03,SSW,203,1.0,3.0,87,0.00,,,0.00,Wunderground v.1.13,2013-07-12 11:20:00,
2013-07-12 07:25:00,66.3,62.3,30.03,SSW,203,1.0,3.0,87,0.00,,,0.00,Wunderground v.1.13,2013-07-12 11:25:00,
2013-07-12 07:30:00,66.6,62.9,30.03,South,180,1.0,3.0,88,0.00,,,0.00,Wunderground v.1.13,2013-07-12 11:30:00,
2013-07-12 07:35:00,66.8,63.5,30.03,South,180,0.0,1.0,89,0.00,,,0.00,Wunderground v.1.13,2013-07-12 11:35:00,
2013-07-12 07:40:00,66.9,62.9,30.03,South,180,1.0,3.0,87,0.00,,,0.00,Wunderground v.1.13,2013-07-12 11:40:00,
2013-07-12 07:45:00,67.1,63.1,30.03,South,180,1.0,3.0,87,0.00,,,0.00,Wunderground v.1.13,2013-07-12 11:45:00,
2013-07-12 07:50:00,67.3,63.3,30.03,South,180,2.0,7.0,87,0.00,,,0.00,Wunderground v.1.13,2013-07-12 11:50:00,
2013-07-12 07:55:00,67.8,63.5,30.03,SSW,203,2.0,7.0,86,0.00,,,0.00,Wunderground v.1.13,2013-07-12 11:55:00,
2013-07-12 08:00:00,68.2,63.5,30.03,South,180,1.0,3.0,85,0.00,,,0.00,Wunderground v.1.13,2013-07-12 12:00:00,
2013-07-12 08:05:00,68.6,64.6,30.03,South,180,1.0,3.0,87,0.00,,,0.00,Wunderground v.1.13,2013-07-12 12:05:00,
2013-07-12 08:10:00,69.2,64.8,30.03,South,180,1.0,3.0,86,0.00,,,0.00,Wunderground v.1.13,2013-07-12 12:10:00,
2013-07-12 08:15:00,70.2,64.8,30.03,SW,225,2.0,5.0,83,0.00,,,0.00,Wunderground v.1.13,2013-07-12 12:15:00,
2013-07-12 08:20:00,71.1,65.0,30.03,South,180,2.0,6.0,81,0.00,,,0.00,Wunderground v.1.13,2013-07-12 12:20:00,
2013-07-12 08:25:00,71.9,66.8,30.03,South,180,1.0,3.0,84,0.00,,,0.00,Wunderground v.1.13,2013-07-12 12:25:00,
2013-07-12 08:30:00,72.3,65.4,30.03,SE,135,1.0,2.0,79,0.00,,,0.00,Wunderground v.1.13,2013-07-12 12:30:00,
2013-07-12 08:35:00,72.5,65.2,30.03,SSE,158,1.0,5.0,78,0.00,,,0.00,Wunderground v.1.13,2013-07-12 12:35:00,
2013-07-12 08:40:00,72.8,65.5,30.03,SSE,158,2.0,5.0,78,0.00,,,0.00,Wunderground v.1.13,2013-07-12 12:40:00,
2013-07-12 08:45:00,72.9,66.4,30.03,SSW,203,2.0,5.0,80,0.00,,,0.00,Wunderground v.1.13,2013-07-12 12:45:00,
2013-07-12 08:50:00,73.4,67.2,30.03,ESE,113,4.0,9.0,81,0.00,,,0.00,Wunderground v.1.13,2013-07-12 12:50:00,
2013-07-12 08:55:00,73.8,65.4,30.03,SSE,158,1.0,4.0,75,0.00,,,0.00,Wunderground v.1.13,2013-07-12 12:55:00,
2013-07-12 09:00:00,74.0,66.3,30.03,SW,225,2.0,6.0,77,0.00,,,0.00,Wunderground v.1.13,2013-07-12 13:00:00,
2013-07-12 09:05:00,73.9,65.5,30.03,SE,135,1.0,3.0,75,0.00,,,0.00,Wunderground v.1.13,2013-07-12 13:05:00,
2013-07-12 09:10:00,74.1,66.8,30.03,NE,45,0.0,2.0,78,0.00,,,0.00,Wunderground v.1.13,2013-07-12 13:10:00,
2013-07-12 09:15:00,73.7,65.7,30.03,SE,135,1.0,4.0,76,0.00,,,0.00,Wunderground v.1.13,2013-07-12 13:15:00,
2013-07-12 09:20:00,73.6,66.3,30.03,ESE,113,1.0,3.0,78,0.00,,,0.00,Wunderground v.1.13,2013-07-12 13:20:00,
2013-07-12 09:25:00,73.7,66.0,30.04,SE,135,1.0,4.0,77,0.00,,,0.00,Wunderground v.1.13,2013-07-12 13:25:00,
2013-07-12 09:30:00,73.5,65.8,30.04,SE,135,1.0,6.0,77,0.00,,,0.00,Wunderground v.1.13,2013-07-12 13:30:00,
2013-07-12 09:35:00,73.4,65.0,30.04,SSE,158,1.0,5.0,75,0.00,,,0.00,Wunderground v.1.13,2013-07-12 13:35:00,
2013-07-12 09:40:00,73.5,65.5,30.04,SSE,158,1.0,3.0,76,0.00,,,0.00,Wunderground v.1.13,2013-07-12 13:40:00,
2013-07-12 09:45:00,73.9,66.2,30.04,SE,135,1.0,4.0,77,0.00,,,0.00,Wunderground v.1.13,2013-07-12 13:45:00,
2013-07-12 09:50:00,73.8,65.4,30.04,SE,135,1.0,7.0,75,0.00,,,0.00,Wunderground v.1.13,2013-07-12 13:50:00,
2013-07-12 09:55:00,73.9,66.2,30.04,SSE,158,1.0,3.0,77,0.00,,,0.00,Wunderground v.1.13,2013-07-12 13:55:00,
2013-07-12 10:00:00,74.0,66.3,30.04,SSE,158,1.0,3.0,77,0.00,,,0.00,Wunderground v.1.13,2013-07-12 14:00:00,
2013-07-12 10:05:00,74.2,65.8,30.04,SE,135,1.0,4.0,75,0.00,,,0.00,Wunderground v.1.13,2013-07-12 14:05:00,
2013-07-12 10:10:00,74.2,66.5,30.04,SE,135,1.0,3.0,77,0.00,,,0.00,Wunderground v.1.13,2013-07-12 14:10:00,
2013-07-12 10:15:00,74.6,66.9,30.04,North,0,0.0,3.0,77,0.00,,,0.00,Wunderground v.1.13,2013-07-12 14:15:00,
2013-07-12 10:20:00,74.8,66.0,30.03,SSE,158,1.0,3.0,74,0.00,,,0.00,Wunderground v.1.13,2013-07-12 14:20:00,
2013-07-12 10:25:00,75.2,66.7,30.03,East,90,1.0,3.0,75,0.00,,,0.00,Wunderground v.1.13,2013-07-12 14:25:00,
2013-07-12 10:30:00,74.9,66.1,30.03,South,180,1.0,4.0,74,0.00,,,0.00,Wunderground v.1.13,2013-07-12 14:30:00,
2013-07-12 10:35:00,75.2,66.7,30.03,SSW,203,1.0,3.0,75,0.00,,,0.00,Wunderground v.1.13,2013-07-12 14:35:00,
2013-07-12 10:40:00,75.3,67.2,30.03,SSE,158,1.0,4.0,76,0.00,,,0.00,Wunderground v.1.13,2013-07-12 14:40:00,
2013-07-12 10:45:00,74.5,66.1,30.03,SE,135,2.0,7.0,75,0.00,,,0.00,Wunderground v.1.13,2013-07-12 14:45:00,
2013-07-12 10:50:00,74.3,66.2,30.03,ESE,113,1.0,5.0,76,0.00,,,0.00,Wunderground v.1.13,2013-07-12 14:50:00,
2013-07-12 10:55:00,74.3,66.6,30.03,SE,135,1.0,4.0,77,0.00,,,0.00,Wunderground v.1.13,2013-07-12 14:55:00,
2013-07-12 11:00:00,74.4,66.7,30.03,ESE,113,0.0,3.0,77,0.00,,,0.00,Wunderground v.1.13,2013-07-12 15:00:00,
2013-07-12 11:05:00,74.8,66.7,30.03,SE,135,0.0,2.0,76,0.00,,,0.00,Wunderground v.1.13,2013-07-12 15:05:00,
2013-07-12 11:10:00,75.2,67.5,30.04,SE,135,0.0,1.0,77,0.00,,,0.00,Wunderground v.1.13,2013-07-12 15:10:00,
2013-07-12 11:15:00,75.7,67.6,30.04,SE,135,0.0,3.0,76,0.00,,,0.00,Wunderground v.1.13,2013-07-12 15:15:00,
2013-07-12 11:20:00,75.7,67.6,30.04,SW,225,1.0,5.0,76,0.00,,,0.00,Wunderground v.1.13,2013-07-12 15:20:00,
2013-07-12 11:25:00,75.7,66.8,30.03,SSE,158,0.0,2.0,74,0.00,,,0.00,Wunderground v.1.13,2013-07-12 15:25:00,
2013-07-12 11:30:00,76.1,68.0,30.04,SE,135,0.0,2.0,76,0.00,,,0.00,Wunderground v.1.13,2013-07-12 15:30:00,
2013-07-12 11:35:00,76.4,68.3,30.04,SE,135,0.0,1.0,76,0.00,,,0.00,Wunderground v.1.13,2013-07-12 15:35:00,
2013-07-12 11:40:00,76.6,67.7,30.03,SE,135,1.0,3.0,74,0.00,,,0.00,Wunderground v.1.13,2013-07-12 15:40:00,
2013-07-12 11:45:00,76.7,68.2,30.03,SE,135,0.0,1.0,75,0.00,,,0.00,Wunderground v.1.13,2013-07-12 15:45:00,
2013-07-12 11:50:00,76.9,68.8,30.03,SE,135,0.0,1.0,76,0.00,,,0.00,Wunderground v.1.13,2013-07-12 15:50:00,
2013-07-12 11:55:00,77.0,68.5,30.03,SE,135,0.0,2.0,75,0.00,,,0.00,Wunderground v.1.13,2013-07-12 15:55:00,
2013-07-12 12:00:00,77.0,68.5,30.03,SE,135,0.0,1.0,75,0.00,,,0.00,Wunderground v.1.13,2013-07-12 16:00:00,
2013-07-12 12:05:00,76.9,69.1,30.03,SE,135,0.0,1.0,77,0.00,,,0.00,Wunderground v.1.13,2013-07-12 16:05:00,
2013-07-12 12:10:00,76.7,68.9,30.03,SE,135,0.0,1.0,77,0.00,,,0.00,Wunderground v.1.13,2013-07-12 16:10:00,
2013-07-12 12:15:00,76.5,69.1,30.03,SE,135,0.0,1.0,78,0.00,,,0.00,Wunderground v.1.13,2013-07-12 16:15:00,
2013-07-12 12:20:00,76.4,69.0,30.03,SE,135,0.0,2.0,78,0.00,,,0.00,Wunderground v.1.13,2013-07-12 16:20:00,
2013-07-12 12:25:00,76.2,68.5,30.03,South,180,1.0,3.0,77,0.00,,,0.00,Wunderground v.1.13,2013-07-12 16:25:00,
2013-07-12 12:30:00,76.1,67.2,30.03,SE,135,1.0,3.0,74,0.00,,,0.00,Wunderground v.1.13,2013-07-12 16:30:00,
2013-07-12 12:35:00,75.6,67.1,30.03,East,90,1.0,3.0,75,0.00,,,0.00,Wunderground v.1.13,2013-07-12 16:35:00,
2013-07-12 12:40:00,75.5,68.5,30.03,ESE,113,0.0,1.0,79,0.00,,,0.00,Wunderground v.1.13,2013-07-12 16:40:00,
2013-07-12 12:45:00,75.5,67.8,30.03,ESE,113,0.0,1.0,77,0.00,,,0.00,Wunderground v.1.13,2013-07-12 16:45:00,
2013-07-12 12:50:00,75.5,68.5,30.03,ESE,113,0.0,1.0,79,0.00,,,0.00,Wunderground v.1.13,2013-07-12 16:50:00,
2013-07-12 12:55:00,75.5,68.5,30.03,ESE,113,0.0,1.0,79,0.00,,,0.00,Wunderground v.1.13,2013-07-12 16:55:00,
2013-07-12 13:00:00,75.5,68.9,30.03,ESE,113,0.0,1.0,80,0.00,,,0.00,Wunderground v.1.13,2013-07-12 17:00:00,
2013-07-12 13:05:00,75.2,68.2,30.03,ESE,113,0.0,2.0,79,0.00,,,0.00,Wunderground v.1.13,2013-07-12 17:05:00,
2013-07-12 13:10:00,75.1,68.9,30.03,ESE,113,0.0,1.0,81,0.00,,,0.00,Wunderground v.1.13,2013-07-12 17:10:00,
2013-07-12 13:15:00,75.2,69.3,30.03,N/A,-737280,0.0,0.0,82,0.00,,,0.00,Wunderground v.1.13,2013-07-12 17:15:00,
2013-07-12 13:20:00,75.3,68.7,30.03,N/A,-737280,0.0,0.0,80,0.00,,,0.00,Wunderground v.1.13,2013-07-12 17:20:00,
2013-07-12 13:25:00,75.3,69.1,30.03,N/A,-737280,0.0,0.0,81,0.00,,,0.00,Wunderground v.1.13,2013-07-12 17:25:00,
2013-07-12 13:30:00,75.2,69.3,30.03,ESE,113,0.0,1.0,82,0.00,,,0.00,Wunderground v.1.13,2013-07-12 17:30:00,
2013-07-12 13:35:00,75.0,68.8,30.03,ESE,113,0.0,1.0,81,0.00,,,0.00,Wunderground v.1.13,2013-07-12 17:35:00,
2013-07-12 13:40:00,74.8,69.3,30.03,N/A,-737280,0.0,0.0,83,0.00,,,0.00,Wunderground v.1.13,2013-07-12 17:40:00,
2013-07-12 13:45:00,74.6,69.1,30.03,N/A,-737280,0.0,0.0,83,0.00,,,0.00,Wunderground v.1.13,2013-07-12 17:45:00,
2013-07-12 13:50:00,74.3,68.8,30.03,N/A,-737280,0.0,0.0,83,0.00,,,0.00,Wunderground v.1.13,2013-07-12 17:50:00,
2013-07-12 13:55:00,74.0,68.5,30.03,N/A,-737280,0.0,0.0,83,0.00,,,0.00,Wunderground v.1.13,2013-07-12 17:55:00,
2013-07-12 14:00:00,73.7,68.6,30.03,N/A,-737280,0.0,0.0,84,0.00,,,0.00,Wunderground v.1.13,2013-07-12 18:00:00,
2013-07-12 14:05:00,73.6,68.8,30.03,N/A,-737280,0.0,0.0,85,0.00,,,0.00,Wunderground v.1.13,2013-07-12 18:05:00,
2013-07-12 14:10:00,73.6,69.2,30.03,N/A,-737280,0.0,0.0,86,0.00,,,0.00,Wunderground v.1.13,2013-07-12 18:10:00,
2013-07-12 14:15:00,73.6,69.2,30.03,N/A,-737280,0.0,0.0,86,0.00,,,0.00,Wunderground v.1.13,2013-07-12 18:15:00,
2013-07-12 14:20:00,73.5,69.1,30.03,ESE,113,0.0,1.0,86,0.00,,,0.00,Wunderground v.1.13,2013-07-12 18:20:00,
2013-07-12 14:25:00,73.4,69.0,30.03,ESE,113,0.0,1.0,86,0.00,,,0.00,Wunderground v.1.13,2013-07-12 18:25:00,
2013-07-12 14:30:00,73.2,68.8,30.03,ESE,113,0.0,1.0,86,0.00,,,0.00,Wunderground v.1.13,2013-07-12 18:30:00,
2013-07-12 14:35:00,73.0,69.2,30.03,ESE,113,0.0,2.0,88,0.00,,,0.00,Wunderground v.1.13,2013-07-12 18:35:00,
2013-07-12 14:40:00,72.9,68.8,30.03,SSE,158,1.0,3.0,87,0.00,,,0.00,Wunderground v.1.13,2013-07-12 18:40:00,
2013-07-12 14:45:00,73.0,68.6,30.03,SSE,158,0.0,2.0,86,0.00,,,0.00,Wunderground v.1.13,2013-07-12 18:45:00,
2013-07-12 14:50:00,73.2,68.8,30.03,SSE,158,0.0,2.0,86,0.00,,,0.00,Wunderground v.1.13,2013-07-12 18:50:00,
2013-07-12 14:55:00,73.4,69.0,30.03,SSE,158,0.0,3.0,86,0.00,,,0.00,Wunderground v.1.13,2013-07-12 18:55:00,
2013-07-12 15:00:00,73.5,68.4,30.03,SSE,158,1.0,2.0,84,0.00,,,0.00,Wunderground v.1.13,2013-07-12 19:00:00,
2013-07-12 15:05:00,73.4,67.9,30.03,SSE,158,1.0,2.0,83,0.00,,,0.00,Wunderground v.1.13,2013-07-12 19:05:00,
2013-07-12 15:10:00,73.6,68.8,30.03,SSE,158,0.0,1.0,85,0.00,,,0.00,Wunderground v.1.13,2013-07-12 19:10:00,
2013-07-12 15:15:00,74.0,69.5,30.03,SSE,158,0.0,1.0,86,0.00,,,0.00,Wunderground v.1.13,2013-07-12 19:15:00,
2013-07-12 15:20:00,74.1,69.3,30.03,SSE,158,0.0,2.0,85,0.00,,,0.00,Wunderground v.1.13,2013-07-12 19:20:00,
2013-07-12 15:25:00,74.2,69.4,30.03,SSE,158,0.0,1.0,85,0.00,,,0.00,Wunderground v.1.13,2013-07-12 19:25:00,
2013-07-12 15:30:00,74.3,69.8,30.03,N/A,-737280,0.0,0.0,86,0.00,,,0.00,Wunderground v.1.13,2013-07-12 19:30:00,
2013-07-12 15:35:00,74.4,69.9,30.03,SSE,158,0.0,1.0,86,0.00,,,0.00,Wunderground v.1.13,2013-07-12 19:35:00,
2013-07-12 15:40:00,74.4,69.9,30.03,SSE,158,0.0,1.0,86,0.00,,,0.00,Wunderground v.1.13,2013-07-12 19:40:00,
2013-07-12 15:45:00,74.3,70.2,30.03,SSE,158,0.0,1.0,87,0.00,,,0.00,Wunderground v.1.13,2013-07-12 19:45:00,
2013-07-12 15:50:00,74.0,69.5,30.03,SSE,158,0.0,1.0,86,0.00,,,0.00,Wunderground v.1.13,2013-07-12 19:50:00,
2013-07-12 15:55:00,73.7,69.2,30.03,SSE,158,0.0,1.0,86,0.00,,,0.00,Wunderground v.1.13,2013-07-12 19:55:00,
2013-07-12 16:00:00,73.3,68.9,30.03,SSE,158,1.0,2.0,86,0.00,,,0.00,Wunderground v.1.13,2013-07-12 20:00:00,
2013-07-12 16:05:00,73.0,68.6,30.03,SSE,158,1.0,1.0,86,0.00,,,0.00,Wunderground v.1.13,2013-07-12 20:05:00,
2013-07-12 16:10:00,72.8,68.7,30.03,SSE,158,0.0,1.0,87,0.00,,,0.00,Wunderground v.1.13,2013-07-12 20:10:00,
2013-07-12 16:15:00,72.6,68.5,30.03,SSE,158,0.0,1.0,87,0.00,,,0.00,Wunderground v.1.13,2013-07-12 20:15:00,
2013-07-12 16:20:00,72.5,68.4,30.03,N/A,-737280,0.0,0.0,87,0.00,,,0.00,Wunderground v.1.13,2013-07-12 20:20:00,
2013-07-12 16:25:00,72.5,68.4,30.03,SSE,158,0.0,1.0,87,0.00,,,0.00,Wunderground v.1.13,2013-07-12 20:25:00,
2013-07-12 16:30:00,72.4,68.3,30.03,SSE,158,0.0,1.0,87,0.00,,,0.00,Wunderground v.1.13,2013-07-12 20:30:00,
2013-07-12 16:35:00,72.3,68.2,30.03,SSE,158,0.0,1.0,87,0.00,,,0.00,Wunderground v.1.13,2013-07-12 20:35:00,
2013-07-12 16:40:00,72.3,68.2,30.03,SSE,158,0.0,1.0,87,0.00,,,0.00,Wunderground v.1.13,2013-07-12 20:40:00,
2013-07-12 16:45:00,72.3,68.2,30.03,SSE,158,0.0,1.0,87,0.00,,,0.00,Wunderground v.1.13,2013-07-12 20:45:00,
2013-07-12 16:50:00,72.3,68.2,30.03,N/A,-737280,0.0,0.0,87,0.00,,,0.00,Wunderground v.1.13,2013-07-12 20:50:00,
2013-07-12 16:55:00,72.2,68.1,30.03,SSE,158,0.0,1.0,87,0.00,,,0.00,Wunderground v.1.13,2013-07-12 20:55:00,
2013-07-12 17:00:00,72.1,68.0,30.03,N/A,-737280,0.0,0.0,87,0.00,,,0.00,Wunderground v.1.13,2013-07-12 21:00:00,
2013-07-12 17:05:00,72.0,67.9,30.04,N/A,-737280,0.0,0.0,87,0.00,,,0.00,Wunderground v.1.13,2013-07-12 21:05:00,
2013-07-12 17:10:00,71.9,67.8,30.04,SSE,158,0.0,1.0,87,0.00,,,0.00,Wunderground v.1.13,2013-07-12 21:10:00,
2013-07-12 17:15:00,71.7,67.6,30.04,N/A,-737280,0.0,0.0,87,0.00,,,0.00,Wunderground v.1.13,2013-07-12 21:15:00,
2013-07-12 17:20:00,71.5,67.4,30.04,N/A,-737280,0.0,0.0,87,0.00,,,0.00,Wunderground v.1.13,2013-07-12 21:20:00,
2013-07-12 17:25:00,71.3,67.2,30.04,N/A,-737280,0.0,0.0,87,0.00,,,0.00,Wunderground v.1.13,2013-07-12 21:25:00,
2013-07-12 17:30:00,71.2,67.5,30.04,N/A,-737280,0.0,0.0,88,0.00,,,0.00,Wunderground v.1.13,2013-07-12 21:30:00,
2013-07-12 17:35:00,71.1,67.4,30.04,N/A,-737280,0.0,0.0,88,0.00,,,0.00,Wunderground v.1.13,2013-07-12 21:35:00,
2013-07-12 17:40:00,70.9,66.8,30.04,N/A,-737280,0.0,0.0,87,0.00,,,0.00,Wunderground v.1.13,2013-07-12 21:40:00,
2013-07-12 17:45:00,70.7,66.6,30.04,N/A,-737280,0.0,0.0,87,0.00,,,0.00,Wunderground v.1.13,2013-07-12 21:45:00,
2013-07-12 17:50:00,70.5,66.8,30.04,N/A,-737280,0.0,0.0,88,0.00,,,0.00,Wunderground v.1.13,2013-07-12 21:50:00,
2013-07-12 17:55:00,70.3,66.6,30.05,N/A,-737280,0.0,0.0,88,0.00,,,0.00,Wunderground v.1.13,2013-07-12 21:55:00,
2013-07-12 18:00:00,70.1,66.4,30.05,N/A,-737280,0.0,0.0,88,0.00,,,0.00,Wunderground v.1.13,2013-07-12 22:00:00,
2013-07-12 18:05:00,69.9,66.2,30.05,N/A,-737280,0.0,0.0,88,0.00,,,0.00,Wunderground v.1.13,2013-07-12 22:05:00,
2013-07-12 18:10:00,69.8,66.1,30.05,N/A,-737280,0.0,0.0,88,0.00,,,0.00,Wunderground v.1.13,2013-07-12 22:10:00,
2013-07-12 18:15:00,69.6,65.9,30.05,N/A,-737280,0.0,0.0,88,0.00,,,0.00,Wunderground v.1.13,2013-07-12 22:15:00,
2013-07-12 18:20:00,69.5,65.8,30.05,N/A,-737280,0.0,0.0,88,0.00,,,0.00,Wunderground v.1.13,2013-07-12 22:20:00,
2013-07-12 18:25:00,69.5,65.8,30.05,N/A,-737280,0.0,0.0,88,0.00,,,0.00,Wunderground v.1.13,2013-07-12 22:25:00,
2013-07-12 18:30:00,69.4,65.7,30.05,N/A,-737280,0.0,0.0,88,0.00,,,0.00,Wunderground v.1.13,2013-07-12 22:30:00,
2013-07-12 18:35:00,69.4,66.0,30.05,N/A,-737280,0.0,0.0,89,0.00,,,0.00,Wunderground v.1.13,2013-07-12 22:35:00,
2013-07-12 18:40:00,69.3,65.9,30.05,N/A,-737280,0.0,0.0,89,0.00,,,0.00,Wunderground v.1.13,2013-07-12 22:40:00,
2013-07-12 18:45:00,69.2,65.8,30.05,N/A,-737280,0.0,0.0,89,0.00,,,0.00,Wunderground v.1.13,2013-07-12 22:45:00,
2013-07-12 18:50:00,69.0,65.6,30.05,N/A,-737280,0.0,0.0,89,0.00,,,0.00,Wunderground v.1.13,2013-07-12 22:50:00,
2013-07-12 18:55:00,68.9,65.5,30.05,N/A,-737280,0.0,0.0,89,0.00,,,0.00,Wunderground v.1.13,2013-07-12 22:55:00,
2013-07-12 19:00:00,68.8,65.4,30.05,N/A,-737280,0.0,0.0,89,0.00,,,0.00,Wunderground v.1.13,2013-07-12 23:00:00,
2013-07-12 19:05:00,68.7,65.3,30.06,N/A,-737280,0.0,0.0,89,0.00,,,0.00,Wunderground v.1.13,2013-07-12 23:05:00,
2013-07-12 19:10:00,68.6,65.2,30.06,N/A,-737280,0.0,0.0,89,0.00,,,0.00,Wunderground v.1.13,2013-07-12 23:10:00,
2013-07-12 19:15:00,68.4,65.0,30.06,N/A,-737280,0.0,0.0,89,0.00,,,0.00,Wunderground v.1.13,2013-07-12 23:15:00,
2013-07-12 19:20:00,68.3,65.3,30.06,N/A,-737280,0.0,0.0,90,0.00,,,0.00,Wunderground v.1.13,2013-07-12 23:20:00,
2013-07-12 19:25:00,68.2,65.2,30.06,N/A,-737280,0.0,0.0,90,0.00,,,0.00,Wunderground v.1.13,2013-07-12 23:25:00,
2013-07-12 19:30:00,68.1,65.1,30.06,N/A,-737280,0.0,0.0,90,0.00,,,0.00,Wunderground v.1.13,2013-07-12 23:30:00,
2013-07-12 19:35:00,67.9,64.9,30.06,N/A,-737280,0.0,0.0,90,0.00,,,0.00,Wunderground v.1.13,2013-07-12 23:35:00,
2013-07-12 19:40:00,67.9,64.9,30.06,N/A,-737280,0.0,0.0,90,0.00,,,0.00,Wunderground v.1.13,2013-07-12 23:40:00,
2013-07-12 19:45:00,67.8,65.1,30.06,N/A,-737280,0.0,0.0,91,0.00,,,0.00,Wunderground v.1.13,2013-07-12 23:45:00,
2013-07-12 19:50:00,67.7,65.0,30.07,N/A,-737280,0.0,0.0,91,0.00,,,0.00,Wunderground v.1.13,2013-07-12 23:50:00,
2013-07-12 19:55:00,67.6,64.9,30.06,N/A,-737280,0.0,0.0,91,0.00,,,0.00,Wunderground v.1.13,2013-07-12 23:55:00,
2013-07-12 20:00:00,67.5,64.8,30.07,N/A,-737280,0.0,0.0,91,0.00,,,0.00,Wunderground v.1.13,2013-07-13 00:00:00,
2013-07-12 20:05:00,67.4,64.7,30.07,N/A,-737280,0.0,0.0,91,0.00,,,0.00,Wunderground v.1.13,2013-07-13 00:05:00,
2013-07-12 20:10:00,67.3,64.6,30.07,N/A,-737280,0.0,0.0,91,0.00,,,0.00,Wunderground v.1.13,2013-07-13 00:10:00,
2013-07-12 20:15:00,67.2,64.8,30.07,N/A,-737280,0.0,0.0,92,0.00,,,0.00,Wunderground v.1.13,2013-07-13 00:15:00,
2013-07-12 20:20:00,67.1,64.7,30.07,N/A,-737280,0.0,0.0,92,0.00,,,0.00,Wunderground v.1.13,2013-07-13 00:20:00,
2013-07-12 20:25:00,67.0,64.3,30.07,N/A,-737280,0.0,0.0,91,0.00,,,0.00,Wunderground v.1.13,2013-07-13 00:25:00,
2013-07-12 20:30:00,66.9,64.2,30.07,N/A,-737280,0.0,0.0,91,0.00,,,0.00,Wunderground v.1.13,2013-07-13 00:30:00,
2013-07-12 20:35:00,66.8,64.4,30.07,N/A,-737280,0.0,0.0,92,0.00,,,0.00,Wunderground v.1.13,2013-07-13 00:35:00,
2013-07-12 20:40:00,66.7,64.3,30.08,N/A,-737280,0.0,0.0,92,0.00,,,0.00,Wunderground v.1.13,2013-07-13 00:40:00,
2013-07-12 20:45:00,66.6,64.2,30.08,N/A,-737280,0.0,0.0,92,0.00,,,0.00,Wunderground v.1.13,2013-07-13 00:45:00,
2013-07-12 20:50:00,66.5,64.1,30.08,N/A,-737280,0.0,0.0,92,0.00,,,0.00,Wunderground v.1.13,2013-07-13 00:50:00,
2013-07-12 20:55:00,66.5,64.1,30.08,N/A,-737280,0.0,0.0,92,0.00,,,0.00,Wunderground v.1.13,2013-07-13 00:55:00,
2013-07-12 21:00:00,66.5,64.1,30.08,N/A,-737280,0.0,0.0,92,0.00,,,0.00,Wunderground v.1.13,2013-07-13 01:00:00,
2013-07-12 21:05:00,66.4,64.3,30.08,N/A,-737280,0.0,0.0,93,0.00,,,0.00,Wunderground v.1.13,2013-07-13 01:05:00,
2013-07-12 21:10:00,66.4,64.0,30.08,N/A,-737280,0.0,0.0,92,0.00,,,0.00,Wunderground v.1.13,2013-07-13 01:10:00,
2013-07-12 21:15:00,66.4,64.0,30.09,N/A,-737280,0.0,0.0,92,0.00,,,0.00,Wunderground v.1.13,2013-07-13 01:15:00,
2013-07-12 21:20:00,66.4,64.3,30.09,N/A,-737280,0.0,0.0,93,0.00,,,0.00,Wunderground v.1.13,2013-07-13 01:20:00,
2013-07-12 21:25:00,66.4,64.3,30.09,N/A,-737280,0.0,0.0,93,0.00,,,0.00,Wunderground v.1.13,2013-07-13 01:25:00,
2013-07-12 21:30:00,66.4,64.3,30.09,N/A,-737280,0.0,0.0,93,0.00,,,0.00,Wunderground v.1.13,2013-07-13 01:30:00,
2013-07-12 21:35:00,66.4,64.3,30.09,N/A,-737280,0.0,0.0,93,0.00,,,0.00,Wunderground v.1.13,2013-07-13 01:35:00,
2013-07-12 21:40:00,66.4,64.3,30.09,N/A,-737280,0.0,0.0,93,0.00,,,0.00,Wunderground v.1.13,2013-07-13 01:40:00,
2013-07-12 21:45:00,66.4,64.3,30.09,N/A,-737280,0.0,0.0,93,0.00,,,0.00,Wunderground v.1.13,2013-07-13 01:45:00,
2013-07-12 21:50:00,66.5,64.4,30.09,N/A,-737280,0.0,0.0,93,0.00,,,0.00,Wunderground v.1.13,2013-07-13 01:50:00,
2013-07-12 21:55:00,66.5,64.4,30.09,N/A,-737280,0.0,0.0,93,0.00,,,0.00,Wunderground v.1.13,2013-07-13 01:55:00,
2013-07-12 22:00:00,66.4,64.3,30.09,N/A,-737280,0.0,0.0,93,0.00,,,0.00,Wunderground v.1.13,2013-07-13 02:00:00,
2013-07-12 22:05:00,66.4,64.3,30.09,N/A,-737280,0.0,0.0,93,0.00,,,0.00,Wunderground v.1.13,2013-07-13 02:05:00,
2013-07-12 22:10:00,66.3,64.2,30.09,N/A,-737280,0.0,0.0,93,0.00,,,0.00,Wunderground v.1.13,2013-07-13 02:10:00,
2013-07-12 22:15:00,66.3,64.2,30.09,N/A,-737280,0.0,0.0,93,0.00,,,0.00,Wunderground v.1.13,2013-07-13 02:15:00,
2013-07-12 22:20:00,66.3,64.2,30.09,N/A,-737280,0.0,0.0,93,0.00,,,0.00,Wunderground v.1.13,2013-07-13 02:20:00,
2013-07-12 22:25:00,66.3,64.2,30.09,N/A,-737280,0.0,0.0,93,0.00,,,0.00,Wunderground v.1.13,2013-07-13 02:25:00,
2013-07-12 22:30:00,66.3,64.2,30.09,N/A,-737280,0.0,0.0,93,0.00,,,0.00,Wunderground v.1.13,2013-07-13 02:30:00,
2013-07-12 22:35:00,66.3,64.2,30.08,N/A,-737280,0.0,0.0,93,0.00,,,0.00,Wunderground v.1.13,2013-07-13 02:35:00,
2013-07-12 22:40:00,66.3,64.2,30.09,N/A,-737280,0.0,0.0,93,0.00,,,0.00,Wunderground v.1.13,2013-07-13 02:40:00,
2013-07-12 22:45:00,66.3,64.2,30.08,N/A,-737280,0.0,0.0,93,0.00,,,0.00,Wunderground v.1.13,2013-07-13 02:45:00,
2013-07-12 22:50:00,66.3,64.2,30.08,N/A,-737280,0.0,0.0,93,0.00,,,0.00,Wunderground v.1.13,2013-07-13 02:50:00,
2013-07-12 22:55:00,66.2,64.1,30.08,N/A,-737280,0.0,0.0,93,0.00,,,0.00,Wunderground v.1.13,2013-07-13 02:55:00,
2013-07-12 23:00:00,66.2,64.1,30.09,N/A,-737280,0.0,0.0,93,0.00,,,0.00,Wunderground v.1.13,2013-07-13 03:00:00,
2013-07-12 23:05:00,66.2,64.1,30.08,N/A,-737280,0.0,0.0,93,0.00,,,0.00,Wunderground v.1.13,2013-07-13 03:05:00,
2013-07-12 23:10:00,66.2,64.1,30.08,N/A,-737280,0.0,0.0,93,0.00,,,0.00,Wunderground v.1.13,2013-07-13 03:10:00,
2013-07-12 23:15:00,66.3,64.2,30.08,N/A,-737280,0.0,0.0,93,0.00,,,0.00,Wunderground v.1.13,2013-07-13 03:15:00,
2013-07-12 23:20:00,66.2,64.1,30.08,N/A,-737280,0.0,0.0,93,0.00,,,0.00,Wunderground v.1.13,2013-07-13 03:20:00,
2013-07-12 23:25:00,66.2,64.1,30.08,N/A,-737280,0.0,0.0,93,0.00,,,0.00,Wunderground v.1.13,2013-07-13 03:25:00,
2013-07-12 23:30:00,66.3,64.2,30.08,N/A,-737280,0.0,0.0,93,0.00,,,0.00,Wunderground v.1.13,2013-07-13 03:30:00,
2013-07-12 23:35:00,66.3,64.2,30.08,N/A,-737280,0.0,0.0,93,0.00,,,0.00,Wunderground v.1.13,2013-07-13 03:35:00,
2013-07-12 23:40:00,66.2,64.1,30.08,N/A,-737280,0.0,0.0,93,0.00,,,0.00,Wunderground v.1.13,2013-07-13 03:40:00,
2013-07-12 23:45:00,66.1,64.0,30.08,N/A,-737280,0.0,0.0,93,0.00,,,0.00,Wunderground v.1.13,2013-07-13 03:45:00,
2013-07-12 23:50:00,65.9,63.8,30.08,N/A,-737280,0.0,0.0,93,0.00,,,0.00,Wunderground v.1.13,2013-07-13 03:50:00,
2013-07-12 23:55:00,65.7,63.3,30.08,N/A,-737280,0.0,0.0,92,0.00,,,0.00,Wunderground v.1.13,2013-07-13 03:55:00,